KMEV

Minden-Tahoe Airport

Airport
ICAO code
KMEV
IATA Code
MEV
Summary
ICAO Region
NAM
ICAO Territory
Location

Minden, Nevada

Serving
Minden
Elevation
4726 ft
Coordinates
39° 0' 2" N , 119° 45' 8" W
Metar
Observation
KMEV 211415Z AUTO 00000KT 10SM OVC070 M01/M03 A2959 RMK AO2
Station
Minden-Tahoe Airport
Date/Time
2023-03-21 14:15:00
Wind direction
Wind speed
00 kts
Lowest cloud amount
overcast
Temperature
-1°C
Dew point
-3°C
Humidity
86%
Weather condition
n/a

Runways

Designator Length Width Surface Rops
12G/30G 671 18 DIRT-G No/No
12/30 1615 23 ASPH-G Yes/Yes
16/34 2256 30 ASP Yes/Yes

Airport map

Aerial View

SKYbrary Partners:

Safety knowledge contributed by: